createdAt,value
2018-11-06T00:00:56.435Z,10.39
2018-11-06T00:03:30.304Z,10.34
2018-11-06T00:05:59.407Z,10.26
2018-11-06T00:08:28.110Z,10.14
2018-11-06T00:10:56.925Z,10.17
2018-11-06T00:13:25.707Z,10.25
2018-11-06T00:15:55.709Z,10.32
2018-11-06T00:18:26.629Z,10.33
2018-11-06T00:20:55.523Z,10.20
2018-11-06T00:23:24.682Z,10.24
2018-11-06T00:25:53.710Z,10.28
2018-11-06T00:28:22.765Z,10.34
2018-11-06T00:30:51.545Z,10.34
2018-11-06T00:33:20.150Z,10.33
2018-11-06T00:35:49.360Z,10.35
2018-11-06T00:38:18.114Z,10.32
2018-11-06T00:40:46.896Z,10.35
2018-11-06T00:43:15.648Z,10.34
2018-11-06T00:45:44.299Z,10.35
2018-11-06T00:48:13.002Z,10.28
2018-11-06T00:50:41.735Z,10.28
2018-11-06T00:53:10.480Z,10.28
2018-11-06T00:55:39.297Z,10.28
2018-11-06T00:58:08.031Z,10.28
2018-11-06T01:00:37.146Z,10.29
2018-11-06T01:03:05.793Z,10.29
2018-11-06T01:05:34.374Z,10.30
2018-11-06T01:08:03.107Z,10.22
2018-11-06T01:10:31.932Z,10.09
2018-11-06T01:13:00.632Z,10.06
2018-11-06T01:15:29.389Z,10.07
2018-11-06T01:17:58.102Z,10.03
2018-11-06T01:20:26.764Z,10.10
2018-11-06T01:22:55.560Z,10.22
2018-11-06T01:25:25.583Z,10.36
2018-11-06T01:27:54.276Z,10.51
2018-11-06T01:30:22.878Z,10.61
2018-11-06T01:32:51.560Z,10.71
2018-11-06T01:35:20.360Z,10.76
2018-11-06T01:37:49.274Z,10.78
2018-11-06T01:40:18.996Z,10.82
2018-11-06T01:42:48.503Z,10.80
2018-11-06T01:45:17.955Z,10.81
2018-11-06T01:47:46.560Z,10.77
2018-11-06T01:50:17.211Z,10.74
2018-11-06T01:52:46.851Z,10.62
2018-11-06T01:55:15.654Z,10.63
2018-11-06T01:57:44.348Z,10.64
2018-11-06T02:00:18.306Z,10.59
2018-11-06T02:02:47.230Z,10.57
2018-11-06T02:05:17.242Z,10.49
2018-11-06T02:07:47.118Z,10.44
2018-11-06T02:10:16.355Z,10.40
2018-11-06T02:12:46.062Z,10.31
2018-11-06T02:15:15.511Z,10.21
2018-11-06T02:17:44.966Z,10.22
2018-11-06T02:20:14.424Z,10.20
2018-11-06T02:22:44.049Z,10.30
2018-11-06T02:25:13.373Z,10.33
2018-11-06T02:27:42.074Z,10.25
2018-11-06T02:30:12.887Z,10.22
2018-11-06T02:32:42.392Z,10.18
2018-11-06T02:35:11.138Z,10.19
2018-11-06T02:37:39.968Z,10.19
2018-11-06T02:40:10.493Z,10.20
2018-11-06T02:42:39.304Z,10.22
2018-11-06T02:45:08.549Z,10.22
2018-11-06T02:47:37.129Z,10.17
2018-11-06T02:50:06.273Z,10.18
2018-11-06T02:52:34.928Z,10.18
2018-11-06T02:55:04.012Z,10.16
2018-11-06T02:57:32.692Z,10.16
2018-11-06T03:00:02.391Z,10.09
2018-11-06T03:02:31.114Z,10.09
2018-11-06T03:04:59.812Z,10.07
2018-11-06T03:07:28.446Z,10.06
2018-11-06T03:09:57.073Z,10.04
2018-11-06T03:12:25.656Z,10.01
2018-11-06T03:14:54.371Z,10.01
2018-11-06T03:17:23.145Z,10.01
2018-11-06T03:19:51.883Z,9.99
2018-11-06T03:22:20.468Z,10.00
2018-11-06T03:24:49.201Z,9.94
2018-11-06T03:27:17.999Z,9.96
2018-11-06T03:29:46.682Z,9.96
2018-11-06T03:32:15.273Z,9.98
2018-11-06T03:34:44.126Z,9.99
2018-11-06T03:37:12.909Z,9.94
2018-11-06T03:39:41.560Z,9.87
2018-11-06T03:42:10.114Z,9.89
2018-11-06T03:44:38.836Z,9.87
2018-11-06T03:47:07.534Z,9.90
2018-11-06T03:49:36.272Z,9.86
2018-11-06T03:52:04.995Z,9.86
2018-11-06T03:54:33.663Z,9.84
2018-11-06T03:57:02.596Z,9.84
2018-11-06T03:59:31.213Z,9.79
2018-11-06T04:02:00.084Z,9.75
2018-11-06T04:04:28.870Z,9.75
2018-11-06T04:06:57.496Z,9.72
2018-11-06T04:09:26.227Z,9.73
2018-11-06T04:11:54.735Z,9.73
2018-11-06T04:14:23.413Z,9.73
2018-11-06T04:16:52.061Z,9.77
2018-11-06T04:19:20.691Z,9.76
2018-11-06T04:21:49.481Z,9.72
2018-11-06T04:24:18.159Z,9.79
2018-11-06T04:26:46.851Z,9.82
2018-11-06T04:29:15.616Z,9.97
2018-11-06T04:31:44.372Z,10.02
2018-11-06T04:34:13.676Z,10.05
2018-11-06T04:36:42.474Z,10.05
2018-11-06T04:39:11.807Z,10.03
2018-11-06T04:41:40.511Z,10.04
2018-11-06T04:44:09.211Z,9.99
2018-11-06T04:46:37.874Z,9.95
2018-11-06T04:49:07.072Z,9.95
2018-11-06T04:51:35.843Z,9.95
2018-11-06T04:54:04.636Z,9.94
2018-11-06T04:56:33.446Z,9.96
2018-11-06T04:59:02.371Z,9.93
2018-11-06T05:01:31.057Z,9.90
2018-11-06T05:03:59.884Z,9.89
2018-11-06T05:06:28.483Z,9.87
2018-11-06T05:08:57.154Z,9.84
2018-11-06T05:11:25.942Z,9.89
2018-11-06T05:13:54.796Z,9.93
2018-11-06T05:16:23.508Z,9.90
2018-11-06T05:18:52.179Z,9.89
2018-11-06T05:21:20.773Z,9.92
2018-11-06T05:23:49.586Z,9.91
2018-11-06T05:26:18.576Z,9.91
2018-11-06T05:28:47.973Z,9.99
2018-11-06T05:31:17.056Z,9.98
2018-11-06T05:33:45.802Z,10.03
2018-11-06T05:36:14.479Z,10.05
2018-11-06T05:38:43.086Z,10.10
2018-11-06T05:41:11.647Z,10.11
2018-11-06T05:43:40.359Z,10.12
2018-11-06T05:46:09.047Z,10.09
2018-11-06T05:48:37.814Z,10.11
2018-11-06T05:51:06.730Z,10.11
2018-11-06T05:53:35.344Z,10.11
2018-11-06T05:56:05.463Z,10.14
2018-11-06T05:58:34.214Z,10.13
2018-11-06T06:01:03.648Z,10.09
2018-11-06T06:03:32.490Z,10.05
2018-11-06T06:06:02.040Z,10.05
2018-11-06T06:08:30.913Z,10.06
2018-11-06T06:10:59.667Z,10.05
2018-11-06T06:13:28.378Z,10.05
2018-11-06T06:15:56.988Z,10.05
2018-11-06T06:18:25.973Z,10.06
2018-11-06T06:20:54.678Z,10.04
2018-11-06T06:23:23.438Z,10.06
2018-11-06T06:25:52.252Z,10.06
2018-11-06T06:28:21.264Z,10.08
2018-11-06T06:30:49.981Z,10.05
2018-11-06T06:33:18.654Z,10.11
2018-11-06T06:35:47.314Z,10.13
2018-11-06T06:38:16.051Z,10.21
2018-11-06T06:40:44.755Z,10.26
2018-11-06T06:43:13.699Z,10.29
2018-11-06T06:45:42.564Z,10.30
2018-11-06T06:48:11.279Z,10.29
2018-11-06T06:50:39.934Z,10.32
2018-11-06T06:53:08.705Z,10.36
2018-11-06T06:55:37.399Z,10.38
2018-11-06T06:58:06.064Z,10.41
2018-11-06T07:00:34.748Z,10.46
2018-11-06T07:03:04.100Z,10.49
2018-11-06T07:05:32.685Z,10.49
2018-11-06T07:08:01.429Z,10.55
2018-11-06T07:10:30.152Z,10.56
2018-11-06T07:12:59.168Z,10.59
2018-11-06T07:15:27.933Z,10.60
2018-11-06T07:17:56.635Z,10.56
2018-11-06T07:20:26.172Z,10.58
2018-11-06T07:22:54.934Z,10.62
2018-11-06T07:25:23.849Z,10.62
2018-11-06T07:27:52.692Z,10.65
2018-11-06T07:30:22.565Z,10.68
2018-11-06T07:32:51.335Z,10.74
2018-11-06T07:35:20.564Z,10.82
2018-11-06T07:37:49.170Z,10.88
2018-11-06T07:40:19.275Z,10.96
2018-11-06T07:42:48.167Z,11.03
2018-11-06T07:45:19.242Z,11.05
2018-11-06T07:47:47.928Z,11.10
2018-11-06T07:50:16.572Z,11.16
2018-11-06T07:52:45.565Z,11.20
2018-11-06T07:55:17.517Z,11.26
2018-11-06T07:57:46.189Z,11.29
2018-11-06T08:00:18.412Z,11.31
2018-11-06T08:02:47.990Z,11.31
2018-11-06T08:05:17.124Z,11.36
2018-11-06T08:07:46.559Z,11.40
2018-11-06T08:10:15.181Z,11.46
2018-11-06T08:12:46.170Z,11.50
2018-11-06T08:15:15.265Z,11.55
2018-11-06T08:17:44.871Z,11.57
2018-11-06T08:20:13.622Z,11.62
2018-11-06T08:22:42.479Z,11.60
2018-11-06T08:25:12.616Z,11.65
2018-11-06T08:27:42.138Z,11.69
2018-11-06T08:30:11.763Z,11.75
2018-11-06T08:32:40.756Z,11.78
2018-11-06T08:35:11.721Z,11.83
2018-11-06T08:37:40.428Z,11.85
2018-11-06T08:40:10.155Z,11.92
2018-11-06T08:42:38.852Z,11.98
2018-11-06T08:45:10.086Z,12.07
2018-11-06T08:47:38.976Z,12.15
2018-11-06T08:50:09.325Z,12.22
2018-11-06T08:52:38.876Z,12.30
2018-11-06T08:55:09.023Z,12.40
2018-11-06T08:57:37.775Z,12.46
2018-11-06T09:00:08.712Z,12.56
2018-11-06T09:02:37.861Z,12.61
2018-11-06T09:05:08.154Z,12.65
2018-11-06T09:07:37.251Z,12.69
2018-11-06T09:10:06.785Z,12.73
2018-11-06T09:12:35.483Z,12.79
2018-11-06T09:15:04.312Z,12.82
2018-11-06T09:17:32.952Z,12.86
2018-11-06T09:20:01.770Z,12.91
2018-11-06T09:22:30.547Z,12.95
2018-11-06T09:24:59.431Z,13.00
2018-11-06T09:27:28.171Z,13.04
2018-11-06T09:29:56.891Z,13.06
2018-11-06T09:32:25.574Z,13.06
2018-11-06T09:34:54.382Z,13.11
2018-11-06T09:37:23.050Z,13.14
2018-11-06T09:39:51.734Z,13.20
2018-11-06T09:42:20.524Z,13.22
2018-11-06T09:44:49.248Z,13.24
2018-11-06T09:47:17.893Z,13.29
2018-11-06T09:49:46.641Z,13.30
2018-11-06T09:52:15.436Z,13.36
2018-11-06T09:54:44.116Z,13.39
2018-11-06T09:57:13.341Z,13.43
2018-11-06T09:59:42.119Z,13.47
2018-11-06T10:02:10.895Z,13.48
2018-11-06T10:04:39.560Z,13.53
2018-11-06T10:07:08.814Z,13.58
2018-11-06T10:09:37.314Z,13.61
2018-11-06T10:12:06.284Z,13.64
2018-11-06T10:14:34.907Z,13.69
2018-11-06T10:17:04.234Z,13.72
2018-11-06T10:19:33.109Z,13.75
2018-11-06T10:22:01.717Z,13.77
2018-11-06T10:24:30.649Z,13.80
2018-11-06T10:26:59.412Z,13.86
2018-11-06T10:29:28.071Z,13.91
2018-11-06T10:31:56.900Z,13.97
2018-11-06T10:34:25.720Z,14.04
2018-11-06T10:36:54.551Z,14.09
2018-11-06T10:39:23.465Z,14.10
2018-11-06T10:41:52.237Z,14.15
2018-11-06T10:44:20.972Z,14.18
2018-11-06T10:46:49.741Z,14.21
2018-11-06T10:49:18.492Z,14.25
2018-11-06T10:51:47.438Z,14.27
2018-11-06T10:54:16.116Z,14.33
2018-11-06T10:56:44.906Z,14.33
2018-11-06T10:59:13.885Z,14.36
2018-11-06T11:01:47.814Z,14.40
2018-11-06T11:04:18.829Z,14.43
2018-11-06T11:06:47.642Z,14.46
2018-11-06T11:09:16.680Z,14.50
2018-11-06T11:11:45.330Z,14.55
2018-11-06T11:14:13.965Z,14.60
2018-11-06T11:16:42.892Z,14.67
2018-11-06T11:19:11.900Z,14.76
2018-11-06T11:21:40.771Z,14.84
2018-11-06T11:24:09.482Z,14.93
2018-11-06T11:26:38.295Z,15.08
2018-11-06T11:29:07.250Z,15.21
2018-11-06T11:31:36.136Z,15.36
2018-11-06T11:34:06.028Z,15.48
2018-11-06T11:36:34.870Z,15.58
2018-11-06T11:39:03.913Z,15.65
2018-11-06T11:41:32.691Z,15.78
2018-11-06T11:44:01.524Z,15.83
2018-11-06T11:46:30.226Z,15.90
2018-11-06T11:48:59.180Z,15.93
2018-11-06T11:51:27.981Z,15.93
2018-11-06T11:53:57.798Z,15.91
2018-11-06T11:56:26.753Z,15.89
2018-11-06T11:58:55.641Z,15.90
2018-11-06T12:01:24.355Z,15.95
2018-11-06T12:03:53.975Z,15.97
2018-11-06T12:06:22.690Z,15.97
2018-11-06T12:08:51.564Z,16.03
2018-11-06T12:11:20.511Z,16.10
2018-11-06T12:13:49.494Z,16.19
2018-11-06T12:16:18.794Z,16.30
2018-11-06T12:18:48.115Z,16.39
2018-11-06T12:21:17.024Z,16.42
2018-11-06T12:23:45.709Z,16.48
2018-11-06T12:26:15.212Z,16.58
2018-11-06T12:28:45.625Z,16.66
2018-11-06T12:31:20.363Z,16.65
2018-11-06T12:33:51.207Z,16.65
2018-11-06T12:36:40.876Z,16.66
2018-11-06T12:39:23.997Z,16.64
2018-11-06T12:41:55.553Z,16.56
2018-11-06T12:44:24.695Z,16.45
2018-11-06T12:46:57.696Z,16.36
2018-11-06T12:49:28.081Z,16.30
2018-11-06T12:51:57.810Z,16.27
2018-11-06T12:54:26.812Z,16.27
2018-11-06T12:56:57.598Z,16.27
2018-11-06T12:59:26.472Z,16.21
2018-11-06T13:01:55.757Z,16.15
2018-11-06T13:04:24.853Z,16.14
2018-11-06T13:06:53.874Z,16.11
2018-11-06T13:09:22.657Z,16.08
2018-11-06T13:11:52.128Z,16.05
2018-11-06T13:14:21.971Z,16.01
2018-11-06T13:16:58.810Z,15.99
2018-11-06T13:19:28.662Z,15.98
2018-11-06T13:21:58.407Z,15.94
2018-11-06T13:24:30.181Z,15.93
2018-11-06T13:27:06.793Z,15.92
2018-11-06T13:29:35.554Z,15.91
2018-11-06T13:32:05.528Z,15.88
2018-11-06T13:34:36.325Z,15.85
2018-11-06T13:37:06.380Z,15.82
2018-11-06T13:39:35.541Z,15.81
2018-11-06T13:42:10.139Z,15.80
2018-11-06T13:44:39.058Z,15.77
2018-11-06T13:47:07.677Z,15.75
2018-11-06T13:49:36.497Z,15.72
2018-11-06T13:52:05.399Z,15.68
2018-11-06T13:54:34.169Z,15.64
2018-11-06T13:57:04.299Z,15.61
2018-11-06T13:59:33.219Z,15.57
2018-11-06T14:02:01.957Z,15.53
2018-11-06T14:04:31.563Z,15.50
2018-11-06T14:07:00.499Z,15.45
2018-11-06T14:09:29.377Z,15.40
2018-11-06T14:11:58.289Z,15.36
2018-11-06T14:14:27.001Z,15.32
2018-11-06T14:16:55.765Z,15.29
2018-11-06T14:19:25.416Z,15.25
2018-11-06T14:21:54.270Z,15.22
2018-11-06T14:24:23.457Z,15.20
2018-11-06T14:26:52.499Z,15.16
2018-11-06T14:29:22.595Z,15.12
2018-11-06T14:31:51.783Z,15.12
2018-11-06T14:34:20.656Z,15.09
2018-11-06T14:36:49.529Z,15.05
2018-11-06T14:39:18.429Z,15.03
2018-11-06T14:41:47.150Z,15.01
2018-11-06T14:44:16.037Z,14.97
2018-11-06T14:46:44.781Z,14.95
2018-11-06T14:49:13.589Z,14.93
2018-11-06T14:51:42.390Z,14.90
2018-11-06T14:54:11.182Z,14.89
2018-11-06T14:56:40.245Z,14.86
2018-11-06T14:59:09.038Z,14.84
2018-11-06T15:01:37.805Z,14.82
2018-11-06T15:04:06.535Z,14.78
2018-11-06T15:06:35.322Z,14.72
2018-11-06T15:09:05.204Z,14.70
2018-11-06T15:11:34.214Z,14.65
2018-11-06T15:14:03.129Z,14.61
2018-11-06T15:16:32.010Z,14.58
2018-11-06T15:19:00.698Z,14.55
2018-11-06T15:21:29.627Z,14.51
2018-11-06T15:23:58.338Z,14.47
2018-11-06T15:26:27.321Z,14.42
2018-11-06T15:28:56.154Z,14.39
2018-11-06T15:31:25.045Z,14.36
2018-11-06T15:33:54.219Z,14.32
2018-11-06T15:36:23.086Z,14.29
2018-11-06T15:38:51.925Z,14.28
2018-11-06T15:41:20.717Z,14.26
2018-11-06T15:43:49.410Z,14.23
2018-11-06T15:46:18.183Z,14.20
2018-11-06T15:48:46.970Z,14.17
2018-11-06T15:51:15.623Z,14.14
2018-11-06T15:53:44.427Z,14.11
2018-11-06T15:56:13.291Z,14.10
2018-11-06T15:58:42.160Z,14.07
2018-11-06T16:01:18.139Z,14.06
2018-11-06T16:03:46.885Z,14.04
2018-11-06T16:06:16.277Z,14.00
2018-11-06T16:08:45.263Z,13.98
2018-11-06T16:11:14.092Z,13.94
2018-11-06T16:13:42.951Z,13.93
2018-11-06T16:16:11.900Z,13.91
2018-11-06T16:18:41.303Z,13.88
2018-11-06T16:21:10.162Z,13.87
2018-11-06T16:23:38.879Z,13.85
2018-11-06T16:26:08.412Z,13.83
2018-11-06T16:28:38.163Z,13.82
2018-11-06T16:31:07.255Z,13.81
2018-11-06T16:33:36.096Z,13.79
2018-11-06T16:36:05.850Z,13.79
2018-11-06T16:38:34.764Z,13.79
2018-11-06T16:41:03.681Z,13.75
2018-11-06T16:43:33.750Z,13.74
2018-11-06T16:46:02.874Z,13.72
2018-11-06T16:48:32.867Z,13.69
2018-11-06T16:51:01.584Z,13.69
2018-11-06T16:53:30.321Z,13.65
2018-11-06T16:58:49.292Z,13.70
2018-11-06T17:01:18.075Z,13.73
2018-11-06T17:03:48.385Z,13.76
2018-11-06T17:06:22.375Z,13.75
2018-11-06T17:08:52.275Z,13.71
2018-11-06T17:11:21.268Z,13.67
2018-11-06T17:13:50.863Z,13.63
2018-11-06T17:16:19.622Z,13.59
2018-11-06T17:18:48.408Z,13.55
2018-11-06T17:21:17.287Z,13.50
2018-11-06T17:23:46.328Z,13.48
2018-11-06T17:26:15.236Z,13.45
2018-11-06T17:28:44.113Z,13.44
2018-11-06T17:31:14.041Z,13.39
2018-11-06T17:33:43.100Z,13.37
2018-11-06T17:36:12.116Z,13.32
2018-11-06T17:38:43.030Z,13.27
2018-11-06T17:41:12.337Z,13.27
2018-11-06T17:43:41.390Z,13.23
2018-11-06T17:46:11.669Z,13.20
2018-11-06T17:48:41.015Z,13.18
2018-11-06T17:51:10.222Z,13.17
2018-11-06T17:53:43.662Z,13.13
2018-11-06T17:56:12.661Z,13.05
2018-11-06T17:58:41.413Z,13.00
2018-11-06T18:01:11.233Z,13.01
2018-11-06T18:03:40.952Z,13.02
2018-11-06T18:06:10.479Z,12.98
2018-11-06T18:08:39.615Z,12.98
2018-11-06T18:11:08.849Z,12.98
2018-11-06T18:13:38.460Z,12.97
2018-11-06T18:16:07.419Z,12.98
2018-11-06T18:18:37.076Z,12.97
2018-11-06T18:21:06.208Z,12.97
2018-11-06T18:23:35.873Z,12.95
2018-11-06T18:26:05.538Z,12.91
2018-11-06T18:28:35.019Z,12.92
2018-11-06T18:31:06.026Z,12.91
2018-11-06T18:33:35.365Z,12.88
2018-11-06T18:36:06.346Z,12.81
2018-11-06T18:38:36.217Z,12.82
2018-11-06T18:41:06.199Z,12.83
2018-11-06T18:43:35.620Z,12.83
2018-11-06T18:46:05.619Z,12.83
2018-11-06T18:48:34.594Z,12.81
2018-11-06T18:51:04.705Z,12.81
2018-11-06T18:53:33.606Z,12.80
2018-11-06T18:56:03.181Z,12.78
2018-11-06T18:58:31.851Z,12.78
2018-11-06T19:01:01.934Z,12.71
2018-11-06T19:03:31.450Z,12.68
2018-11-06T19:06:00.646Z,12.64
2018-11-06T19:08:29.738Z,12.59
2018-11-06T19:10:58.570Z,12.61
2018-11-06T19:13:27.556Z,12.59
2018-11-06T19:15:56.803Z,12.57
2018-11-06T19:18:27.090Z,12.50
2018-11-06T19:20:55.827Z,12.54
2018-11-06T19:23:24.895Z,12.54
2018-11-06T19:25:53.718Z,12.50
2018-11-06T19:28:22.390Z,12.49
2018-11-06T19:33:31.172Z,12.45
2018-11-06T19:36:00.228Z,12.39
2018-11-06T19:38:30.329Z,12.37
2018-11-06T19:40:59.238Z,12.37
2018-11-06T19:43:28.849Z,12.36
2018-11-06T19:45:58.215Z,12.38
2018-11-06T19:48:27.003Z,12.33
2018-11-06T19:50:56.013Z,12.29
2018-11-06T19:53:25.086Z,12.30
2018-11-06T19:55:55.309Z,12.30
2018-11-06T19:58:24.606Z,12.27
2018-11-06T20:00:54.247Z,12.23
2018-11-06T20:03:23.616Z,12.26
2018-11-06T20:05:52.528Z,12.28
2018-11-06T20:08:27.831Z,12.26
2018-11-06T20:10:56.521Z,12.31
2018-11-06T20:13:26.452Z,12.31
2018-11-06T20:15:55.323Z,12.30
2018-11-06T20:18:24.337Z,12.30
2018-11-06T20:20:53.196Z,12.29
2018-11-06T20:23:21.931Z,12.27
2018-11-06T20:25:50.882Z,12.22
2018-11-06T20:28:20.041Z,12.19
2018-11-06T20:30:48.726Z,12.19
2018-11-06T20:33:17.613Z,12.18
2018-11-06T20:35:47.001Z,12.18
2018-11-06T20:38:15.840Z,12.16
2018-11-06T20:40:45.395Z,12.12
2018-11-06T20:43:14.295Z,12.10
2018-11-06T20:45:42.849Z,12.08
2018-11-06T20:48:11.832Z,12.03
2018-11-06T20:50:40.543Z,12.02
2018-11-06T20:53:09.359Z,12.00
2018-11-06T20:55:38.501Z,12.02
2018-11-06T20:58:07.400Z,12.01
2018-11-06T21:00:36.164Z,11.95
2018-11-06T21:03:05.081Z,11.91
2018-11-06T21:05:33.791Z,11.88
2018-11-06T21:08:03.681Z,11.88
2018-11-06T21:10:32.502Z,11.88
2018-11-06T21:13:01.329Z,11.85
2018-11-06T21:15:30.100Z,11.83
2018-11-06T21:17:58.868Z,11.80
2018-11-06T21:20:28.120Z,11.80
2018-11-06T21:22:56.993Z,11.73
2018-11-06T21:25:30.529Z,11.70
2018-11-06T21:28:02.689Z,11.68
2018-11-06T21:30:31.581Z,11.67
2018-11-06T21:33:01.861Z,11.65
2018-11-06T21:35:30.995Z,11.63
2018-11-06T21:37:59.814Z,11.65
2018-11-06T21:40:30.882Z,11.66
2018-11-06T21:43:03.389Z,11.69
2018-11-06T21:45:34.994Z,11.67
2018-11-06T21:48:03.773Z,11.67
2018-11-06T21:50:32.523Z,11.63
2018-11-06T21:53:03.093Z,11.53
2018-11-06T21:55:31.788Z,11.46
2018-11-06T21:58:00.520Z,11.43
2018-11-06T22:00:31.804Z,11.43
2018-11-06T22:03:02.438Z,11.40
2018-11-06T22:05:31.153Z,11.40
2018-11-06T22:08:00.229Z,11.39
2018-11-06T22:10:29.176Z,11.37
2018-11-06T22:12:58.005Z,11.38
2018-11-06T22:15:26.742Z,11.35
2018-11-06T22:17:56.276Z,11.30
2018-11-06T22:20:25.620Z,11.27
2018-11-06T22:22:54.436Z,11.24
2018-11-06T22:25:23.219Z,11.21
2018-11-06T22:27:51.939Z,11.19
2018-11-06T22:30:20.568Z,11.15
2018-11-06T22:32:49.284Z,11.14
2018-11-06T22:35:19.669Z,11.12
2018-11-06T22:37:48.406Z,11.13
2018-11-06T22:40:18.309Z,11.10
2018-11-06T22:42:48.676Z,11.08
2018-11-06T22:45:18.194Z,11.09
2018-11-06T22:47:46.847Z,11.09
2018-11-06T22:50:16.815Z,11.07
2018-11-06T22:52:46.272Z,11.04
2018-11-06T22:55:15.073Z,11.07
2018-11-06T22:57:44.510Z,11.04
2018-11-06T23:00:16.210Z,11.02
2018-11-06T23:02:44.968Z,11.02
2018-11-06T23:05:14.308Z,10.98
2018-11-06T23:07:48.324Z,11.00
2018-11-06T23:10:17.047Z,11.00
2018-11-06T23:12:46.852Z,10.98
2018-11-06T23:15:15.570Z,10.98
2018-11-06T23:17:44.265Z,10.97
2018-11-06T23:20:13.061Z,10.94
2018-11-06T23:22:41.793Z,10.91
2018-11-06T23:25:10.433Z,10.86
2018-11-06T23:27:39.055Z,10.87
2018-11-06T23:30:10.288Z,10.86
2018-11-06T23:32:38.948Z,10.84
2018-11-06T23:35:08.520Z,10.81
2018-11-06T23:37:37.714Z,10.80
2018-11-06T23:40:06.861Z,10.78
2018-11-06T23:42:35.563Z,10.74
2018-11-06T23:45:04.908Z,10.73
2018-11-06T23:47:33.860Z,10.71
2018-11-06T23:50:03.629Z,10.69
2018-11-06T23:52:32.287Z,10.66
2018-11-06T23:55:02.479Z,10.66
2018-11-06T23:57:31.584Z,10.61
